Cantwell, AK

7:40 AM AKDT on September 16, 2014 (GMT -0800)
Chulitna | Change Station
CLOSE
Current Station
Airport
Location: Chulitna,
Elevation: 1250 ft
Nearby Weather Stations

Elev 1250 ft 62.88 °N, 149.83 °W | Updated 52 minutes ago

Light Rain
Light Rain
45 °F
Feels Like 45 °F
N
0
Wind Variable Wind from North

Today
High -- | Low -- °F
--% Chance of Precip.
Yesterday
High -- | Low -- °F
Precip. -- in
7:22 AM 8:15 PM
Last Quarter, 44% visible
Pressure 29.67 in
Visibility 10.0 miles
Clouds Overcast 2400 ft
Dew Point 43 °F
Humidity 93%
Rainfall 0.00 in
Snow Depth 2 in , 0 in , 1 in
UV 0 out of 12
Pollen Not available.
Air Quality Not available.
Flu Activity Not available.
METAR PAEC 161448Z 00000KT 10SM -RA OVC024 07/06 A2967 RMK NOSPECI

More Conditions Fewer Conditions

Pressure 29.67 in
Visibility 10.0 miles
Clouds Overcast 2400 ft
Dew Point 43 °F
Humidity 93%
Rainfall 0.00 in
Snow Depth 2 in , 0 in , 1 in
UV 0 out of 12
Pollen Not available.
Air Quality Not available.
Flu Activity Not available.
METAR PAEC 161448Z 00000KT 10SM -RA OVC024 07/06 A2967 RMK NOSPECI

More Conditions Fewer Conditions

10-Day Weather Forecast

Almanac

Astronomy

Sep. 16, 2014 Rise Set
Actual Time 7:22 AM AKDT 8:15 PM AKDT
Civil Twilight 6:34 AM AKDT 9:02 PM AKDT
Nautical Twilight 5:35 AM AKDT 10:01 PM AKDT
Astronomical Twilight 4:24 AM AKDT 11:10 PM AKDT
Moon No Moon Rise 5:16 PM AKDT
Length of Visible Light 14h 28m
Length of Day
12h 53m
Tomorrow will be 6m 14s shorter.
Last Quarter, 44% of the Moon is Illuminated
Today
Last Quarter
Sep 24
New
Oct 1
First Quarter
Oct 8
Full
Oct 15
Last Quarter

Today's Extremes

State Highs State Lows

Community

WunderPhotos

Upload Photos

1,753,813 photos uploaded!

Nearby

Snow Depth

Station Depth Elevation
Turnagain Pass 2 in 1880 ft
Port Graham 0 in 300 ft
Atigun Pass 4 in 4800 ft
Nuka Glacier 164 in 1250 ft
Upper Chena 1 in 2850 ft

Earthquake Activity

City Distance Mag. Time & Date
No recent earthquake activity has been reported nearby.
Minimum magnitude displayed is 2.5.

Coastal Water Temperatures

Place Temperature
No Stations Reporting

Nearby Weather Stations